Time;durP1;ratioP1;P1;durP2;ratioP2;P2;SDS_P1;SDS_P2;PMS_P1;PMS_P2;Temp;Humidity;BMP_temperature;BMP_pressure;BME280_temperature;BME280_humidity;BME280_pressure;Samples;Min_cycle;Max_cycle;Signal;HPM_P1;HPM_P2
2023/09/14 00:01:30;;;;;;;4.88;1.70;;;11.70;99.90;;;;;;4977169;28;20038;-64
2023/09/14 00:03:56;;;;;;;5.38;1.70;;;11.70;99.90;;;;;;4977623;28;20045;-64
2023/09/14 00:06:21;;;;;;;5.03;1.67;;;11.70;99.90;;;;;;4977179;28;20073;-64
2023/09/14 00:08:47;;;;;;;5.88;1.92;;;11.70;99.90;;;;;;4993742;28;20414;-64
2023/09/14 00:11:13;;;;;;;5.13;1.80;;;11.60;99.90;;;;;;4993447;28;20039;-63
2023/09/14 00:13:39;;;;;;;5.25;1.90;;;11.60;99.90;;;;;;4977169;28;20045;-63
2023/09/14 00:16:05;;;;;;;5.93;1.58;;;11.60;99.90;;;;;;4993053;28;20068;-63
2023/09/14 00:18:31;;;;;;;5.30;1.70;;;11.60;99.90;;;;;;4994579;28;20041;-64
2023/09/14 00:20:57;;;;;;;4.72;1.60;;;11.60;99.90;;;;;;4993048;28;20042;-63
2023/09/14 00:23:23;;;;;;;5.20;1.73;;;11.50;99.90;;;;;;4993076;28;20042;-63
2023/09/14 00:25:50;;;;;;;4.65;1.50;;;11.40;99.90;;;;;;4993256;28;20057;-64
2023/09/14 00:28:17;;;;;;;6.45;2.10;;;11.30;99.90;;;;;;4977200;28;20046;-64
2023/09/14 00:30:42;;;;;;;5.28;1.80;;;11.30;99.90;;;;;;4977057;28;21444;-71
2023/09/14 00:33:08;;;;;;;4.60;1.65;;;11.20;99.90;;;;;;4993519;28;20050;-71
2023/09/14 00:35:34;;;;;;;5.60;1.85;;;11.20;99.90;;;;;;4993458;28;20049;-72
2023/09/14 00:38:00;;;;;;;5.47;1.67;;;11.20;99.90;;;;;;4977126;28;20030;-72
2023/09/14 00:40:26;;;;;;;5.93;2.00;;;11.30;99.90;;;;;;4976784;28;20034;-72
2023/09/14 00:42:52;;;;;;;4.93;1.80;;;11.30;99.90;;;;;;4977012;28;20129;-73
2023/09/14 00:45:20;;;;;;;4.47;1.70;;;11.30;99.90;;;;;;4993235;28;20084;-72
2023/09/14 00:47:50;;;;;;;5.93;1.88;;;11.40;99.90;;;;;;4994551;28;20080;-72
2023/09/14 00:50:17;;;;;;;6.10;2.15;;;11.40;99.90;;;;;;4976996;28;20130;-71
2023/09/14 00:52:46;;;;;;;5.10;1.75;;;11.40;99.90;;;;;;4976721;28;20050;-71
2023/09/14 00:55:17;;;;;;;7.82;2.33;;;11.30;99.90;;;;;;4993078;28;20034;-71
2023/09/14 00:57:44;;;;;;;6.72;2.13;;;11.30;99.90;;;;;;4976816;28;20459;-71
2023/09/14 01:00:11;;;;;;;9.05;2.90;;;11.30;99.90;;;;;;4993094;28;20038;-71
2023/09/14 01:02:39;;;;;;;7.13;2.50;;;11.20;99.90;;;;;;4976689;28;20533;-71
2023/09/14 01:05:06;;;;;;;6.28;2.10;;;11.10;99.90;;;;;;4992541;28;20085;-71
2023/09/14 01:07:36;;;;;;;5.97;2.20;;;11.10;99.90;;;;;;4992732;28;20042;-71
2023/09/14 01:10:05;;;;;;;6.90;2.10;;;11.20;99.90;;;;;;4977392;28;20410;-71
2023/09/14 01:12:32;;;;;;;7.63;2.63;;;11.10;99.90;;;;;;4960498;28;20046;-70
2023/09/14 01:15:04;;;;;;;6.22;2.20;;;11.10;99.90;;;;;;5011127;28;20053;-71
2023/09/14 01:17:59;;;;;;;7.38;2.20;;;11.10;99.90;;;;;;4980633;28;20132;-71
2023/09/14 01:20:43;;;;;;;7.40;2.58;;;11.10;99.90;;;;;;5013284;28;20475;-71
2023/09/14 01:23:14;;;;;;;6.55;2.35;;;11.10;99.90;;;;;;4997735;28;20038;-72
2023/09/14 01:25:49;;;;;;;7.28;2.30;;;11.00;99.90;;;;;;4996985;28;20049;-72
2023/09/14 01:28:18;;;;;;;5.32;2.00;;;11.00;99.90;;;;;;4996820;28;20151;-72
2023/09/14 01:30:43;;;;;;;6.15;2.08;;;11.10;99.90;;;;;;4996694;28;20042;-72
2023/09/14 01:33:12;;;;;;;6.05;2.00;;;11.10;99.90;;;;;;5013052;28;20557;-71
2023/09/14 01:35:50;;;;;;;5.38;1.95;;;11.00;99.90;;;;;;4980832;28;20046;-71
2023/09/14 01:38:17;;;;;;;5.18;1.73;;;11.00;99.90;;;;;;4997292;28;20450;-73
2023/09/14 01:40:44;;;;;;;7.40;1.88;;;11.00;99.90;;;;;;4996865;28;20093;-72
2023/09/14 01:43:13;;;;;;;4.70;1.73;;;10.90;99.90;;;;;;4997222;28;20047;-72
2023/09/14 01:45:39;;;;;;;6.05;1.90;;;10.90;99.90;;;;;;4997347;28;20082;-72
2023/09/14 01:48:05;;;;;;;4.80;1.70;;;10.90;99.90;;;;;;4996990;28;20046;-73
2023/09/14 01:50:31;;;;;;;4.82;1.80;;;11.00;99.90;;;;;;4997258;28;20053;-70
2023/09/14 01:52:58;;;;;;;6.50;2.22;;;11.00;99.90;;;;;;4980958;28;20042;-71
2023/09/14 01:55:24;;;;;;;6.85;2.08;;;11.00;99.90;;;;;;4980880;28;20050;-71
2023/09/14 01:57:49;;;;;;;6.82;2.30;;;11.00;99.90;;;;;;4981177;28;20534;-72
2023/09/14 02:00:16;;;;;;;9.77;3.00;;;11.10;99.90;;;;;;4998061;28;20050;-71
2023/09/14 02:02:42;;;;;;;8.00;2.53;;;11.00;99.90;;;;;;4980888;28;20042;-72
2023/09/14 02:05:08;;;;;;;7.10;2.65;;;11.00;99.90;;;;;;4980289;28;20046;-69
2023/09/14 02:07:33;;;;;;;6.82;2.30;;;10.90;99.90;;;;;;4964463;28;20109;-70
2023/09/14 02:09:59;;;;;;;6.18;2.20;;;10.90;99.90;;;;;;4997938;28;20120;-71
2023/09/14 02:12:25;;;;;;;5.60;2.10;;;10.90;99.90;;;;;;5013054;28;20038;-72
2023/09/14 02:14:51;;;;;;;6.30;2.13;;;10.90;99.90;;;;;;4964045;28;20050;-71
2023/09/14 02:17:17;;;;;;;7.35;2.20;;;10.80;99.90;;;;;;4964297;28;20039;-73
2023/09/14 02:19:43;;;;;;;5.63;2.28;;;10.90;99.90;;;;;;4964092;28;20046;-72
2023/09/14 02:22:09;;;;;;;4.93;1.90;;;10.80;99.90;;;;;;4980038;28;20053;-73
2023/09/14 02:24:35;;;;;;;5.15;1.95;;;10.80;99.90;;;;;;4996173;28;20556;-73
2023/09/14 02:27:01;;;;;;;5.70;1.90;;;10.80;99.90;;;;;;4996344;28;20403;-72
2023/09/14 02:29:30;;;;;;;6.03;2.10;;;10.80;99.90;;;;;;4979857;28;20167;-73
2023/09/14 02:31:57;;;;;;;7.10;2.00;;;10.80;99.90;;;;;;4980462;28;20050;-70
2023/09/14 02:34:27;;;;;;;7.45;2.20;;;10.80;99.90;;;;;;4995715;28;20050;-71
2023/09/14 02:36:54;;;;;;;5.35;2.17;;;10.80;99.90;;;;;;4963329;28;20049;-71
2023/09/14 02:39:20;;;;;;;7.07;2.20;;;10.80;99.90;;;;;;4963664;28;20112;-72
2023/09/14 02:41:48;;;;;;;5.97;2.15;;;10.80;99.90;;;;;;4995527;28;20054;-73
2023/09/14 02:44:14;;;;;;;5.45;2.10;;;10.80;99.90;;;;;;4995396;28;20053;-71
2023/09/14 02:46:40;;;;;;;6.93;2.10;;;10.70;99.90;;;;;;4979346;28;20132;-71
2023/09/14 02:49:05;;;;;;;6.38;2.05;;;10.70;99.90;;;;;;4995425;28;20042;-71
2023/09/14 02:51:31;;;;;;;5.90;2.03;;;10.70;99.90;;;;;;4995473;28;20376;-63
2023/09/14 02:53:57;;;;;;;6.82;2.72;;;10.70;99.90;;;;;;4994970;28;20045;-65
2023/09/14 02:56:23;;;;;;;7.95;2.40;;;10.70;99.90;;;;;;4978492;28;20038;-64
2023/09/14 02:58:51;;;;;;;5.43;2.20;;;10.70;99.90;;;;;;4996170;28;20054;-64
2023/09/14 03:01:20;;;;;;;7.50;2.03;;;10.70;99.90;;;;;;5011120;28;20042;-65
2023/09/14 03:03:47;;;;;;;5.55;2.10;;;10.70;99.90;;;;;;4994831;28;20502;-65
2023/09/14 03:06:14;;;;;;;6.13;2.10;;;10.70;99.90;;;;;;5011018;28;20502;-65
2023/09/14 03:08:39;;;;;;;5.57;2.10;;;10.70;99.90;;;;;;4962673;28;20555;-64
2023/09/14 03:11:08;;;;;;;6.90;2.35;;;10.70;99.90;;;;;;4994427;28;20133;-65
2023/09/14 03:13:34;;;;;;;5.93;2.17;;;10.60;99.90;;;;;;4994740;28;20482;-64
2023/09/14 03:16:03;;;;;;;5.20;1.80;;;10.60;99.90;;;;;;5010798;28;20042;-66
2023/09/14 03:18:29;;;;;;;4.85;1.83;;;10.50;99.90;;;;;;4994253;28;20049;-64
2023/09/14 03:20:56;;;;;;;5.05;1.90;;;10.40;99.90;;;;;;4978291;28;20049;-64
2023/09/14 03:23:34;;;;;;;7.57;2.05;;;10.40;99.90;;;;;;4978620;28;20042;-64
2023/09/14 03:26:00;;;;;;;4.63;1.80;;;10.40;99.90;;;;;;4994130;28;20042;-65
2023/09/14 03:28:26;;;;;;;5.43;1.98;;;10.40;99.90;;;;;;4995688;28;20044;-65
2023/09/14 03:30:52;;;;;;;5.38;1.83;;;10.50;99.90;;;;;;4978035;28;20052;-65
2023/09/14 03:33:17;;;;;;;6.95;2.13;;;10.50;99.90;;;;;;4978132;28;20069;-65
2023/09/14 03:35:43;;;;;;;7.03;2.00;;;10.50;99.90;;;;;;4977761;28;20066;-65
2023/09/14 03:38:09;;;;;;;5.32;2.20;;;10.50;99.90;;;;;;4994970;28;20037;-65
2023/09/14 03:40:35;;;;;;;6.60;2.00;;;10.50;99.90;;;;;;4977653;28;20046;-64
2023/09/14 03:43:01;;;;;;;5.30;2.00;;;10.50;99.90;;;;;;4993743;28;20105;-64
2023/09/14 03:45:27;;;;;;;5.72;2.00;;;10.50;99.90;;;;;;5010237;28;20046;-65
2023/09/14 03:47:55;;;;;;;5.45;1.90;;;10.50;99.90;;;;;;4961631;28;20121;-65
2023/09/14 03:50:24;;;;;;;4.85;2.00;;;10.50;99.90;;;;;;5010440;28;20507;-65
2023/09/14 03:52:53;;;;;;;6.43;2.30;;;10.50;99.90;;;;;;5009931;28;20048;-66
2023/09/14 03:55:19;;;;;;;5.88;2.00;;;10.50;99.90;;;;;;4994722;28;20085;-66
2023/09/14 03:57:47;;;;;;;5.90;2.17;;;10.40;99.90;;;;;;4977540;28;20455;-64
2023/09/14 04:00:15;;;;;;;5.78;2.22;;;10.40;99.90;;;;;;4993565;28;20038;-64
2023/09/14 04:02:42;;;;;;;5.78;2.38;;;10.40;99.90;;;;;;4993805;28;20137;-66
2023/09/14 04:05:16;;;;;;;4.95;1.95;;;10.40;99.90;;;;;;4993443;28;20050;-64
2023/09/14 04:07:44;;;;;;;6.53;2.60;;;10.40;99.90;;;;;;4994684;28;20117;-64
2023/09/14 04:10:13;;;;;;;5.53;2.20;;;10.40;99.90;;;;;;4977876;28;20046;-65
2023/09/14 04:12:43;;;;;;;5.80;2.25;;;10.40;99.90;;;;;;4977082;28;20097;-65
2023/09/14 04:15:09;;;;;;;7.03;2.40;;;10.30;99.90;;;;;;4993382;28;20101;-64
2023/09/14 04:17:36;;;;;;;5.85;2.10;;;10.40;99.90;;;;;;4993311;28;20038;-65
2023/09/14 04:20:12;;;;;;;5.75;2.22;;;10.30;99.90;;;;;;4977607;28;20042;-63
2023/09/14 04:22:38;;;;;;;6.45;2.03;;;10.30;99.90;;;;;;4994592;28;20042;-65
2023/09/14 04:25:08;;;;;;;6.60;2.20;;;10.30;99.90;;;;;;4977192;28;20520;-64
2023/09/14 04:27:34;;;;;;;6.85;2.50;;;10.30;99.90;;;;;;5009338;28;20046;-65
2023/09/14 04:30:00;;;;;;;5.55;2.30;;;10.30;99.90;;;;;;4977108;28;20406;-64
2023/09/14 04:32:32;;;;;;;6.63;2.28;;;10.30;99.90;;;;;;4977520;28;20046;-64
2023/09/14 04:35:01;;;;;;;6.38;2.20;;;10.20;99.90;;;;;;4977383;28;20046;-65
2023/09/14 04:37:26;;;;;;;5.65;2.40;;;10.20;99.90;;;;;;5009469;28;20049;-65
2023/09/14 04:39:52;;;;;;;6.72;2.22;;;10.20;99.90;;;;;;4992794;28;20038;-64
2023/09/14 04:42:18;;;;;;;5.32;2.17;;;10.20;99.90;;;;;;4992858;28;20050;-65
2023/09/14 04:44:49;;;;;;;5.20;2.17;;;10.20;99.90;;;;;;4993152;28;20035;-65
2023/09/14 04:47:15;;;;;;;6.28;2.33;;;10.20;99.90;;;;;;4992728;28;20050;-65
2023/09/14 04:49:44;;;;;;;5.60;2.30;;;10.20;99.90;;;;;;4991856;28;20521;-64
2023/09/14 04:52:11;;;;;;;6.03;2.30;;;10.20;99.90;;;;;;4976922;28;20050;-65
2023/09/14 04:54:37;;;;;;;5.38;2.22;;;10.20;99.90;;;;;;4992630;28;20494;-65
2023/09/14 04:57:06;;;;;;;6.35;2.30;;;10.20;99.90;;;;;;4994385;28;20109;-65
2023/09/14 04:59:32;;;;;;;6.28;2.13;;;10.10;99.90;;;;;;4992489;28;20043;-64
2023/09/14 05:01:58;;;;;;;6.30;2.20;;;10.10;99.90;;;;;;5009119;28;20046;-64
2023/09/14 05:04:24;;;;;;;5.30;2.40;;;10.10;99.90;;;;;;5009221;28;20477;-65
2023/09/14 05:06:50;;;;;;;5.82;2.45;;;10.10;99.90;;;;;;4993684;28;20070;-64
2023/09/14 05:09:16;;;;;;;5.22;2.38;;;10.10;99.90;;;;;;4976282;28;20136;-66
2023/09/14 05:11:41;;;;;;;6.97;2.40;;;10.10;99.90;;;;;;4976664;28;20104;-65
2023/09/14 05:14:07;;;;;;;5.35;2.28;;;10.10;99.90;;;;;;4992429;28;20121;-65
2023/09/14 05:16:33;;;;;;;4.65;2.08;;;10.00;99.90;;;;;;4976125;28;20049;-65
2023/09/14 05:18:59;;;;;;;5.97;2.15;;;10.00;99.90;;;;;;4976471;28;20125;-65
2023/09/14 05:21:25;;;;;;;6.70;2.30;;;10.00;99.90;;;;;;4992541;28;20118;-65
2023/09/14 05:23:50;;;;;;;5.30;2.20;;;10.00;99.90;;;;;;4992416;28;20491;-64
2023/09/14 05:26:16;;;;;;;5.13;2.00;;;10.00;99.90;;;;;;4993930;28;20125;-64
2023/09/14 05:28:42;;;;;;;6.13;2.13;;;10.00;99.90;;;;;;4992844;28;20094;-64
2023/09/14 05:31:08;;;;;;;9.05;2.40;;;10.10;99.90;;;;;;4992320;28;20089;-65
2023/09/14 05:33:34;;;;;;;5.63;2.40;;;10.10;99.90;;;;;;4976390;28;20046;-64
2023/09/14 05:36:00;;;;;;;4.55;2.15;;;10.00;99.90;;;;;;4976107;28;20100;-65
2023/09/14 05:38:25;;;;;;;4.90;2.20;;;10.10;99.90;;;;;;4976072;28;20048;-65
2023/09/14 05:40:52;;;;;;;4.45;2.08;;;10.00;99.90;;;;;;4976196;28;20197;-64
2023/09/14 05:43:18;;;;;;;5.45;2.30;;;10.00;99.90;;;;;;4993842;28;20430;-65
2023/09/14 05:45:44;;;;;;;5.78;2.10;;;10.00;99.90;;;;;;4992390;28;20050;-65
2023/09/14 05:48:10;;;;;;;6.30;2.67;;;9.90;99.90;;;;;;4975997;28;20046;-65
2023/09/14 05:50:36;;;;;;;7.38;3.10;;;10.00;99.90;;;;;;4976191;28;20438;-64
2023/09/14 05:53:02;;;;;;;6.65;3.08;;;10.00;99.90;;;;;;4992029;28;20108;-65
2023/09/14 05:55:28;;;;;;;6.43;3.20;;;10.00;99.90;;;;;;4975831;28;20054;-65
2023/09/14 05:57:54;;;;;;;8.07;3.72;;;9.90;99.90;;;;;;5008666;28;20093;-64
2023/09/14 06:00:20;;;;;;;7.50;3.30;;;9.90;99.90;;;;;;5009986;28;20046;-65
2023/09/14 06:02:46;;;;;;;6.38;3.08;;;9.80;99.90;;;;;;4979523;28;20088;-65
2023/09/14 06:05:12;;;;;;;6.50;3.17;;;9.80;99.90;;;;;;4995629;28;20121;-64
2023/09/14 06:07:38;;;;;;;6.65;3.10;;;9.90;99.90;;;;;;4995551;28;20117;-65
2023/09/14 06:10:04;;;;;;;7.05;3.20;;;9.90;99.90;;;;;;4995524;28;20471;-64
2023/09/14 06:12:30;;;;;;;6.85;3.30;;;9.90;99.90;;;;;;4979849;28;20406;-64
2023/09/14 06:14:57;;;;;;;9.32;3.40;;;9.90;99.90;;;;;;4995763;28;20042;-65
2023/09/14 06:17:22;;;;;;;7.78;3.90;;;9.90;99.90;;;;;;4979210;28;20053;-65
2023/09/14 06:19:48;;;;;;;10.80;4.00;;;10.00;99.90;;;;;;4996603;28;20502;-65
2023/09/14 06:22:14;;;;;;;8.55;4.60;;;10.20;99.90;;;;;;4997133;28;20085;-64
2023/09/14 06:24:40;;;;;;;8.45;4.95;;;10.50;99.90;;;;;;4979235;28;20076;-65
2023/09/14 06:27:06;;;;;;;8.50;4.53;;;11.00;99.90;;;;;;4995405;28;20038;-65
2023/09/14 06:29:32;;;;;;;10.48;4.53;;;11.60;99.90;;;;;;4979356;28;20136;-65
2023/09/14 06:32:00;;;;;;;9.93;4.03;;;12.00;99.90;;;;;;4979491;28;20100;-65
2023/09/14 06:34:26;;;;;;;6.90;3.20;;;12.60;99.90;;;;;;4996529;28;20502;-64
2023/09/14 06:36:52;;;;;;;7.85;3.53;;;12.90;99.90;;;;;;4962783;28;20042;-64
2023/09/14 06:39:21;;;;;;;8.55;3.35;;;13.20;99.90;;;;;;4995246;28;20051;-64
2023/09/14 06:41:48;;;;;;;6.88;2.80;;;13.80;99.90;;;;;;4978949;28;20511;-64
2023/09/14 06:44:18;;;;;;;7.00;2.95;;;14.20;99.90;;;;;;4995463;28;20046;-65
2023/09/14 06:46:45;;;;;;;7.35;2.92;;;14.90;99.90;;;;;;4969201;28;20113;-65
2023/09/14 06:49:11;;;;;;;6.95;2.63;;;15.60;99.90;;;;;;4990528;28;20057;-64
2023/09/14 06:51:37;;;;;;;6.35;2.53;;;16.00;99.90;;;;;;4995243;28;20034;-64
2023/09/14 06:54:04;;;;;;;6.55;2.45;;;16.30;99.90;;;;;;4978811;28;20046;-64
2023/09/14 06:56:30;;;;;;;6.28;2.67;;;16.60;99.90;;;;;;5011103;28;20125;-66
2023/09/14 06:58:56;;;;;;;7.63;2.50;;;16.70;99.90;;;;;;4994864;28;20074;-66
2023/09/14 07:01:22;;;;;;;5.90;2.20;;;17.20;99.90;;;;;;5010955;28;20447;-64
2023/09/14 07:03:50;;;;;;;5.13;2.08;;;17.40;99.90;;;;;;4962622;28;20046;-64
2023/09/14 07:06:16;;;;;;;7.85;2.10;;;17.80;99.90;;;;;;4994583;28;20058;-65
2023/09/14 07:08:42;;;;;;;5.63;2.00;;;18.10;99.90;;;;;;4978326;28;20055;-66
2023/09/14 07:11:12;;;;;;;5.45;2.20;;;18.40;99.90;;;;;;4961869;28;20046;-64
2023/09/14 07:13:38;;;;;;;7.72;2.50;;;18.40;99.90;;;;;;4994180;28;20099;-65
2023/09/14 07:16:04;;;;;;;6.50;2.30;;;18.30;99.90;;;;;;4994362;28;20405;-64
2023/09/14 07:18:31;;;;;;;5.90;2.22;;;18.20;99.90;;;;;;4978053;28;20034;-65
2023/09/14 07:21:00;;;;;;;6.22;2.30;;;18.20;99.90;;;;;;4978478;28;20499;-66
2023/09/14 07:23:26;;;;;;;6.72;2.38;;;18.20;99.90;;;;;;4994182;28;20109;-67
2023/09/14 07:25:53;;;;;;;8.00;2.13;;;18.30;99.90;;;;;;4994632;28;20499;-65
2023/09/14 07:28:20;;;;;;;7.70;2.10;;;18.40;99.90;;;;;;4995272;28;20038;-65
2023/09/14 07:30:51;;;;;;;7.70;2.33;;;18.70;99.90;;;;;;4994571;28;20050;-73
2023/09/14 07:33:18;;;;;;;6.68;2.17;;;19.50;99.90;;;;;;4994266;28;20057;-73
2023/09/14 07:35:46;;;;;;;6.32;1.83;;;19.40;99.90;;;;;;4995256;28;20038;-71
2023/09/14 07:38:13;;;;;;;7.40;2.10;;;19.30;98.10;;;;;;4978265;28;20046;-72
2023/09/14 07:40:40;;;;;;;6.35;1.90;;;19.00;99.20;;;;;;4994234;28;20046;-72
2023/09/14 07:43:05;;;;;;;6.45;1.95;;;18.70;99.20;;;;;;4994269;28;20038;-72
2023/09/14 07:45:35;;;;;;;7.40;1.85;;;18.30;99.90;;;;;;4994050;28;20060;-71
2023/09/14 07:48:05;;;;;;;7.35;2.05;;;17.90;99.90;;;;;;4994284;28;20057;-72
2023/09/14 07:50:39;;;;;;;8.70;1.83;;;17.70;99.90;;;;;;4993963;28;20089;-71
2023/09/14 07:53:09;;;;;;;8.05;2.00;;;17.50;99.90;;;;;;4993917;28;20050;-71
2023/09/14 07:55:36;;;;;;;7.65;2.00;;;17.20;99.90;;;;;;4993626;28;20054;-72
2023/09/14 07:58:02;;;;;;;8.20;1.80;;;17.10;99.90;;;;;;4978312;28;20080;-70
2023/09/14 08:00:28;;;;;;;7.63;2.00;;;16.90;99.90;;;;;;4994334;28;20117;-72
2023/09/14 08:02:54;;;;;;;7.10;1.83;;;16.60;99.90;;;;;;4978015;28;20081;-71
2023/09/14 08:05:20;;;;;;;10.63;2.10;;;16.50;99.90;;;;;;4994336;28;20430;-72
2023/09/14 08:07:46;;;;;;;9.20;2.08;;;16.50;99.90;;;;;;4994084;28;20113;-71
2023/09/14 08:10:12;;;;;;;10.98;2.17;;;16.60;99.90;;;;;;4993763;28;20050;-72
2023/09/14 08:12:38;;;;;;;9.68;1.90;;;16.80;99.90;;;;;;4993888;28;20074;-72
2023/09/14 08:15:04;;;;;;;7.20;1.80;;;16.90;99.90;;;;;;4993852;28;20046;-72
2023/09/14 08:17:30;;;;;;;8.65;2.10;;;17.00;99.90;;;;;;4995120;28;20126;-73
2023/09/14 08:19:56;;;;;;;8.02;2.15;;;17.20;99.90;;;;;;4977499;28;20045;-74
2023/09/14 08:22:23;;;;;;;8.80;2.05;;;17.40;99.90;;;;;;4994828;28;20042;-71
2023/09/14 08:24:52;;;;;;;7.28;2.00;;;17.40;99.90;;;;;;4993743;28;20491;-71
2023/09/14 08:27:18;;;;;;;8.20;1.90;;;17.50;99.90;;;;;;4994526;28;20046;-71
2023/09/14 08:29:45;;;;;;;8.68;1.88;;;17.70;99.90;;;;;;4993648;28;20042;-72
2023/09/14 08:32:12;;;;;;;9.32;2.20;;;17.90;99.90;;;;;;5009899;28;20538;-71
2023/09/14 08:34:37;;;;;;;9.40;2.10;;;18.00;99.90;;;;;;4994599;28;20039;-73
2023/09/14 08:37:04;;;;;;;7.32;2.10;;;18.10;99.90;;;;;;4993195;28;20476;-71
2023/09/14 08:39:30;;;;;;;10.73;2.40;;;18.30;99.90;;;;;;4993073;28;20050;-71
2023/09/14 08:41:56;;;;;;;8.82;2.20;;;18.20;99.90;;;;;;4977098;28;20486;-71
2023/09/14 08:44:22;;;;;;;7.78;2.22;;;18.30;99.90;;;;;;4976963;28;20057;-71
2023/09/14 08:46:48;;;;;;;9.43;1.90;;;18.50;99.90;;;;;;4976775;28;20049;-70
2023/09/14 08:49:17;;;;;;;6.35;2.10;;;18.90;99.90;;;;;;4994181;28;20049;-72
2023/09/14 08:51:45;;;;;;;7.70;2.20;;;19.10;99.90;;;;;;4993157;28;20514;-72
2023/09/14 08:54:12;;;;;;;9.18;2.20;;;19.00;99.90;;;;;;4992825;28;20089;-71
2023/09/14 08:56:39;;;;;;;8.80;2.10;;;19.00;99.90;;;;;;5009547;28;20395;-72
2023/09/14 08:59:07;;;;;;;7.70;2.00;;;19.30;99.90;;;;;;4993046;28;20042;-71
2023/09/14 09:01:39;;;;;;;7.95;2.30;;;19.30;99.90;;;;;;4994190;28;20038;-72
2023/09/14 09:04:05;;;;;;;6.07;1.90;;;19.40;99.90;;;;;;4992862;28;20498;-71
2023/09/14 09:06:32;;;;;;;8.32;1.83;;;19.40;99.90;;;;;;4992991;28;20120;-72
2023/09/14 09:08:59;;;;;;;8.88;2.05;;;19.60;99.90;;;;;;4976586;28;20042;-71
2023/09/14 09:11:25;;;;;;;7.90;1.90;;;19.60;99.80;;;;;;4992803;28;20081;-72
2023/09/14 09:13:51;;;;;;;7.85;2.05;;;19.70;99.90;;;;;;4976743;28;20605;-72
2023/09/14 09:16:17;;;;;;;8.60;1.92;;;19.80;99.90;;;;;;5009027;28;20176;-71
2023/09/14 09:19:02;;;;;;;8.30;2.17;;;19.90;99.80;;;;;;4992766;28;20499;-72
2023/09/14 09:21:30;;;;;;;9.18;2.03;;;20.00;99.30;;;;;;4993967;28;20057;-72
2023/09/14 09:23:57;;;;;;;10.13;2.35;;;19.90;98.00;;;;;;4993009;28;20558;-71
2023/09/14 09:26:24;;;;;;;9.75;2.10;;;20.00;98.10;;;;;;4994249;28;20046;-71
2023/09/14 09:28:50;;;;;;;7.45;2.00;;;20.10;98.60;;;;;;4992683;28;20050;-71
2023/09/14 09:31:16;;;;;;;7.00;1.98;;;20.10;97.60;;;;;;4976490;28;20042;-72
2023/09/14 09:33:47;;;;;;;9.98;2.22;;;20.10;95.30;;;;;;4976740;28;20451;-73
2023/09/14 09:36:14;;;;;;;9.70;2.10;;;20.00;97.00;;;;;;4979294;28;20133;-71
2023/09/14 09:38:40;;;;;;;9.85;2.20;;;20.10;97.40;;;;;;4996408;28;20049;-72
2023/09/14 09:41:10;;;;;;;8.88;1.98;;;20.00;97.80;;;;;;4980544;28;20058;-72
2023/09/14 09:43:40;;;;;;;9.15;2.10;;;19.80;98.00;;;;;;4996506;28;20109;-73
2023/09/14 09:46:18;;;;;;;11.90;2.20;;;19.60;97.70;;;;;;4996715;28;20038;-72
2023/09/14 09:48:44;;;;;;;10.48;2.30;;;19.50;97.40;;;;;;4996762;28;20044;-72
2023/09/14 09:51:10;;;;;;;8.60;2.15;;;19.60;98.40;;;;;;5012851;28;20042;-64
2023/09/14 09:53:36;;;;;;;8.77;2.33;;;19.60;98.30;;;;;;4996267;28;20042;-64
2023/09/14 09:56:03;;;;;;;9.32;2.08;;;19.80;99.20;;;;;;4995781;28;20054;-63
2023/09/14 09:58:36;;;;;;;8.85;2.30;;;19.90;99.00;;;;;;5012111;28;20122;-64
2023/09/14 10:01:02;;;;;;;8.27;2.28;;;19.80;97.90;;;;;;4997070;28;20043;-65
2023/09/14 10:03:30;;;;;;;6.85;2.13;;;19.80;98.80;;;;;;4995898;28;20196;-65
2023/09/14 10:05:56;;;;;;;8.20;2.30;;;19.60;97.70;;;;;;4995694;28;20383;-63
2023/09/14 10:08:22;;;;;;;6.40;2.20;;;19.70;97.40;;;;;;4995608;28;20054;-64
2023/09/14 10:10:53;;;;;;;7.68;2.08;;;19.50;97.30;;;;;;4997094;28;20045;-64
2023/09/14 10:13:24;;;;;;;9.10;2.20;;;19.30;97.00;;;;;;4995779;28;20049;-64
2023/09/14 10:16:01;;;;;;;10.43;2.50;;;19.30;97.50;;;;;;4995820;28;20085;-65
2023/09/14 10:18:29;;;;;;;8.32;2.30;;;19.10;98.20;;;;;;4995428;28;20042;-64
2023/09/14 10:20:56;;;;;;;7.78;2.13;;;19.00;98.90;;;;;;4995633;28;20045;-63
2023/09/14 10:23:22;;;;;;;7.03;2.13;;;19.00;99.10;;;;;;4995337;28;20046;-64
2023/09/14 10:25:50;;;;;;;8.15;2.13;;;19.20;96.90;;;;;;4979342;28;20050;-63
2023/09/14 10:28:20;;;;;;;9.07;2.03;;;19.50;97.30;;;;;;4995259;28;20132;-62
2023/09/14 10:30:47;;;;;;;8.75;2.03;;;19.70;96.90;;;;;;4996816;28;20431;-64
2023/09/14 10:33:14;;;;;;;7.95;2.08;;;19.90;96.60;;;;;;4995119;28;20100;-64
2023/09/14 10:35:42;;;;;;;8.40;2.10;;;20.10;96.70;;;;;;4996761;28;20074;-64
2023/09/14 10:38:09;;;;;;;7.85;2.13;;;20.10;95.80;;;;;;4996831;28;20038;-64
2023/09/14 10:40:39;;;;;;;7.03;2.10;;;20.00;96.50;;;;;;4995125;28;20042;-64
2023/09/14 10:43:05;;;;;;;9.75;2.28;;;19.70;96.70;;;;;;4979316;28;20050;-64
2023/09/14 10:45:36;;;;;;;8.07;2.05;;;19.50;96.60;;;;;;4995125;28;20414;-65
2023/09/14 10:48:06;;;;;;;6.35;1.92;;;19.60;97.20;;;;;;4978112;28;20426;-65
2023/09/14 10:50:33;;;;;;;8.48;2.22;;;19.80;97.20;;;;;;4996424;28;20437;-63
2023/09/14 10:52:59;;;;;;;8.13;2.13;;;20.00;96.70;;;;;;4994778;28;20088;-64
2023/09/14 10:55:27;;;;;;;8.00;2.20;;;20.20;96.30;;;;;;5011223;28;20482;-64
2023/09/14 10:57:54;;;;;;;7.57;2.20;;;20.30;95.80;;;;;;4995136;28;20445;-65
2023/09/14 11:00:34;;;;;;;7.32;2.30;;;20.40;92.50;;;;;;4994741;28;20049;-64
2023/09/14 11:03:00;;;;;;;8.70;2.38;;;20.50;94.10;;;;;;4995061;28;20045;-72
2023/09/14 11:05:40;;;;;;;8.20;2.30;;;20.50;94.30;;;;;;4996197;28;20038;-71
2023/09/14 11:08:06;;;;;;;7.30;2.05;;;20.60;91.90;;;;;;4996340;28;20046;-70
2023/09/14 11:10:51;;;;;;;7.60;2.20;;;20.60;92.80;;;;;;4978660;28;20097;-72
2023/09/14 11:13:20;;;;;;;7.28;2.10;;;20.70;92.70;;;;;;4995420;28;20041;-71
2023/09/14 11:15:47;;;;;;;7.15;2.10;;;20.90;91.70;;;;;;4996134;28;20046;-72
2023/09/14 11:18:17;;;;;;;8.30;2.20;;;20.90;91.10;;;;;;4994584;28;20096;-72
2023/09/14 11:20:44;;;;;;;6.72;2.10;;;20.90;91.10;;;;;;5011154;28;20047;-72
2023/09/14 11:23:13;;;;;;;7.22;2.40;;;20.80;91.40;;;;;;4994615;28;20046;-72
2023/09/14 11:25:43;;;;;;;8.15;2.40;;;20.80;92.30;;;;;;4994870;28;20610;-72
2023/09/14 11:28:19;;;;;;;9.50;2.45;;;20.90;93.50;;;;;;4994411;28;20038;-72
2023/09/14 11:30:51;;;;;;;7.28;2.28;;;21.10;93.50;;;;;;4978208;28;20061;-72
2023/09/14 11:33:17;;;;;;;7.53;2.33;;;21.20;92.60;;;;;;4994252;28;20042;-71
2023/09/14 11:35:47;;;;;;;7.22;2.15;;;21.30;92.40;;;;;;4994453;28;20046;-71
2023/09/14 11:38:25;;;;;;;8.68;2.50;;;21.40;91.00;;;;;;4978410;28;20061;-70
2023/09/14 11:40:53;;;;;;;7.40;2.30;;;21.40;90.00;;;;;;4994276;28;20050;-71
2023/09/14 11:43:28;;;;;;;6.93;2.40;;;21.40;91.00;;;;;;4994547;28;20535;-71
2023/09/14 11:46:07;;;;;;;7.32;2.30;;;21.50;90.40;;;;;;5010550;28;20046;-72
2023/09/14 11:48:35;;;;;;;10.05;2.25;;;21.50;90.90;;;;;;5010382;28;20082;-71
2023/09/14 11:51:03;;;;;;;7.03;2.40;;;21.50;91.50;;;;;;4977831;28;20089;-71
2023/09/14 11:53:33;;;;;;;8.93;2.30;;;21.50;92.10;;;;;;4978054;28;20129;-72
2023/09/14 11:56:03;;;;;;;8.77;2.17;;;21.70;92.30;;;;;;4993913;28;20081;-71
2023/09/14 11:58:34;;;;;;;8.18;2.45;;;21.70;92.40;;;;;;4977680;28;20117;-70
2023/09/14 12:01:00;;;;;;;8.40;2.30;;;21.70;92.30;;;;;;4993987;28;20113;-72
2023/09/14 12:03:27;;;;;;;9.45;2.20;;;21.80;91.60;;;;;;4995133;28;20085;-71
2023/09/14 12:05:56;;;;;;;8.40;2.38;;;21.70;91.20;;;;;;4993797;28;20046;-70
2023/09/14 12:08:21;;;;;;;6.70;2.05;;;21.60;91.00;;;;;;4977609;28;20046;-71
2023/09/14 12:10:54;;;;;;;8.00;1.95;;;21.40;91.50;;;;;;4978361;28;20049;-64
2023/09/14 12:13:20;;;;;;;6.85;2.35;;;21.30;92.00;;;;;;5010062;28;20046;-65
2023/09/14 12:15:55;;;;;;;8.85;2.53;;;21.30;92.10;;;;;;4993481;28;20053;-65
2023/09/14 12:18:21;;;;;;;8.52;2.22;;;21.40;92.50;;;;;;4993545;28;20514;-65
2023/09/14 12:20:48;;;;;;;8.05;2.50;;;21.40;90.90;;;;;;4977129;28;20077;-64
2023/09/14 12:23:14;;;;;;;7.03;2.20;;;21.40;91.20;;;;;;4993157;28;20074;-65
2023/09/14 12:25:41;;;;;;;9.20;2.33;;;21.30;92.10;;;;;;4977058;28;20045;-64
2023/09/14 12:28:08;;;;;;;7.57;2.40;;;21.30;92.10;;;;;;4977318;28;20050;-64
2023/09/14 12:30:35;;;;;;;8.55;2.22;;;21.20;92.30;;;;;;4976752;28;20085;-64
2023/09/14 12:33:03;;;;;;;8.85;2.35;;;21.10;92.50;;;;;;4992997;28;20050;-65
2023/09/14 12:35:30;;;;;;;8.20;2.30;;;20.90;92.90;;;;;;4976953;28;20049;-65
2023/09/14 12:38:05;;;;;;;8.27;2.60;;;20.80;93.80;;;;;;4976929;28;20050;-65
2023/09/14 12:40:35;;;;;;;7.88;2.20;;;20.60;93.50;;;;;;4992937;28;20124;-65
2023/09/14 12:43:05;;;;;;;7.22;2.20;;;20.40;93.90;;;;;;4992823;28;20557;-64
2023/09/14 12:45:35;;;;;;;6.20;2.00;;;20.40;94.10;;;;;;4992961;28;20054;-65
2023/09/14 12:48:08;;;;;;;8.15;2.35;;;20.40;94.60;;;;;;4992794;28;20092;-64
2023/09/14 12:50:37;;;;;;;7.10;2.42;;;20.60;93.90;;;;;;4993051;28;20038;-65